Accueil
METAR-TAF:

METAR-TAF

Aéroports :

Aéroport d'Iakoutsk

Iakoutsk, Russie

latitude: 62-01N, longitude: 129-43E, altitude: 103 m

Observation

Le bulletin a été fait il y a 24 minutes, à 06:00 UTC
Vent 2 kt de est/nord-est
Température 18°C
Humidité 56%
Pression 1001 hPa
Visibilité 10 km ou plus
Nuages épars à une hauteur de 4000 ft, Cumulonimbus.

METAR: UEEE 210600Z 07001MPS 9999 SCT040CB 18/09 Q1001 R23L/09//60 NOSIG RMK QFE742

Heure: 15:24 (06:24 UTC)

Prévision

Le bulletin a été fait il y a 1 heure et 24 minutes, à 05:00 UTC
Prévision valable du 21 à 06 UTC au 22 à 12 UTC
Vent 6 kt de est/sud-est avec des rafales jusqu'à 16 kt
Visibilité 10 km ou plus
Nuages fragmentés à une hauteur de 3000 ft, Cumulonimbus.
Ciel couvert à une hauteur de 10000 ft
Temporairement
du 21 à 06 UTC au 21 à 12 UTC
faibles averses de pluie

TAF: UEEE 210500Z 2106/2212 12003G08MPS 9999 BKN030CB OVC100 TEMPO 2106/2112 -SHRA

Observations et prévisions météorologiques de plus de 4000 aéroports (messages METAR et TAF).

Les stations disponibles sont représentées par des disques jaunes et rouges sur la carte.

Passer la souris dessus pour voir le nom de la station.

Cliquer dessus pour voir les observations et prévisions météorologiques.

Pour changer de carte: cliquez sur les boutons verts avec une croix noire pour zoomer, sur le bouton vert avec un tiret pour effectuer un zoom arrière, ou sur les flèches vertes pour les cartes adjacentes.


METAR-TAF: